createdAt,value
2022-08-24T00:02:05.832Z,99.90
2022-08-24T00:04:35.296Z,99.90
2022-08-24T00:07:04.887Z,99.90
2022-08-24T00:09:37.914Z,99.90
2022-08-24T00:12:06.911Z,99.90
2022-08-24T00:14:36.554Z,99.90
2022-08-24T00:17:07.535Z,99.90
2022-08-24T00:19:37.338Z,99.90
2022-08-24T00:22:06.401Z,99.90
2022-08-24T00:24:35.382Z,99.90
2022-08-24T00:27:04.076Z,99.90
2022-08-24T00:29:32.707Z,99.90
2022-08-24T00:32:01.379Z,99.90
2022-08-24T00:34:32.762Z,99.90
2022-08-24T00:37:02.279Z,99.90
2022-08-24T00:39:30.907Z,99.90
2022-08-24T00:41:59.591Z,99.90
2022-08-24T00:44:28.242Z,99.90
2022-08-24T00:47:00.600Z,99.90
2022-08-24T00:49:45.034Z,99.90
2022-08-24T00:52:19.686Z,99.90
2022-08-24T00:54:52.736Z,99.90
2022-08-24T00:57:28.446Z,99.90
2022-08-24T01:00:01.364Z,99.90
2022-08-24T01:02:35.277Z,99.90
2022-08-24T01:05:08.868Z,99.90
2022-08-24T01:07:39.304Z,99.90
2022-08-24T01:10:13.053Z,99.90
2022-08-24T01:12:48.204Z,99.90
2022-08-24T01:15:28.640Z,99.90
2022-08-24T01:18:15.502Z,99.90
2022-08-24T01:20:50.365Z,99.90
2022-08-24T01:23:36.708Z,99.90
2022-08-24T01:26:05.964Z,99.90
2022-08-24T01:28:37.022Z,99.90
2022-08-24T01:31:05.930Z,99.90
2022-08-24T01:33:34.765Z,99.90
2022-08-24T01:36:08.996Z,99.90
2022-08-24T01:38:39.084Z,99.90
2022-08-24T01:41:07.730Z,99.90
2022-08-24T01:43:37.395Z,99.90
2022-08-24T01:46:09.348Z,99.90
2022-08-24T01:48:38.614Z,99.90
2022-08-24T01:51:07.768Z,99.90
2022-08-24T01:53:36.962Z,99.90
2022-08-24T01:56:08.583Z,99.90
2022-08-24T01:58:37.302Z,99.90
2022-08-24T02:01:06.566Z,99.90
2022-08-24T02:03:35.767Z,99.90
2022-08-24T02:06:05.633Z,99.90
2022-08-24T02:08:36.645Z,99.90
2022-08-24T02:11:09.623Z,99.90
2022-08-24T02:13:39.778Z,99.90
2022-08-24T02:16:09.486Z,99.90
2022-08-24T02:18:40.798Z,99.90
2022-08-24T02:21:09.936Z,99.90
2022-08-24T02:23:38.749Z,99.90
2022-08-24T02:26:11.504Z,99.90
2022-08-24T02:28:40.800Z,99.90
2022-08-24T02:31:11.193Z,99.90
2022-08-24T02:33:41.048Z,99.90
2022-08-24T02:36:25.866Z,99.90
2022-08-24T02:38:58.090Z,99.90
2022-08-24T02:41:28.975Z,99.90
2022-08-24T02:43:58.160Z,99.90
2022-08-24T02:46:28.840Z,99.90
2022-08-24T02:49:10.153Z,99.90
2022-08-24T02:51:45.349Z,99.90
2022-08-24T02:54:19.718Z,99.90
2022-08-24T02:56:52.876Z,99.90
2022-08-24T02:59:23.334Z,99.90
2022-08-24T03:01:52.487Z,99.90
2022-08-24T03:04:22.673Z,99.90
2022-08-24T03:06:51.247Z,99.90
2022-08-24T03:09:19.853Z,99.90
2022-08-24T03:11:54.681Z,99.90
2022-08-24T03:14:23.280Z,99.90
2022-08-24T03:16:51.743Z,99.90
2022-08-24T03:19:20.469Z,99.90
2022-08-24T03:21:49.158Z,99.90
2022-08-24T03:24:17.935Z,99.90
2022-08-24T03:26:46.956Z,99.90
2022-08-24T03:29:18.754Z,99.90
2022-08-24T03:31:48.708Z,99.90
2022-08-24T03:34:19.829Z,99.90
2022-08-24T03:36:48.994Z,99.90
2022-08-24T03:39:18.920Z,99.90
2022-08-24T03:41:50.899Z,99.90
2022-08-24T03:44:23.187Z,99.90
2022-08-24T03:46:53.219Z,99.90
2022-08-24T03:49:23.809Z,99.90
2022-08-24T03:51:53.325Z,99.90
2022-08-24T03:54:25.464Z,99.90
2022-08-24T03:56:54.210Z,99.90
2022-08-24T03:59:24.293Z,99.90
2022-08-24T04:01:57.521Z,99.90
2022-08-24T04:04:29.615Z,99.90
2022-08-24T04:06:58.202Z,99.90
2022-08-24T04:09:29.423Z,99.90
2022-08-24T04:11:58.291Z,99.90
2022-08-24T04:14:29.190Z,99.90
2022-08-24T04:17:04.634Z,99.90
2022-08-24T04:19:38.257Z,99.90
2022-08-24T04:22:06.915Z,99.90
2022-08-24T04:24:36.653Z,99.90
2022-08-24T04:27:05.484Z,99.90
2022-08-24T04:29:36.055Z,99.90
2022-08-24T04:32:05.150Z,99.90
2022-08-24T04:34:34.043Z,99.90
2022-08-24T04:37:02.754Z,99.90
2022-08-24T04:39:31.516Z,99.90
2022-08-24T04:42:12.942Z,99.90
2022-08-24T04:44:45.721Z,99.90
2022-08-24T04:47:15.715Z,99.90
2022-08-24T04:49:44.351Z,99.90
2022-08-24T04:52:12.864Z,99.90
2022-08-24T04:54:42.907Z,99.90
2022-08-24T04:57:17.914Z,99.90
2022-08-24T04:59:49.493Z,99.90
2022-08-24T05:02:18.714Z,99.90
2022-08-24T05:04:50.501Z,99.90
2022-08-24T05:07:19.817Z,99.90
2022-08-24T05:09:48.941Z,99.90
2022-08-24T05:12:21.658Z,99.90
2022-08-24T05:15:01.130Z,99.90
2022-08-24T05:17:33.298Z,99.90
2022-08-24T05:20:02.038Z,99.90
2022-08-24T05:22:31.620Z,99.90
2022-08-24T05:25:01.164Z,99.90
2022-08-24T05:27:30.280Z,99.90
2022-08-24T05:30:00.468Z,99.90
2022-08-24T05:32:29.006Z,99.90
2022-08-24T05:34:57.665Z,99.90
2022-08-24T05:37:26.446Z,99.90
2022-08-24T05:40:17.230Z,99.90
2022-08-24T05:42:49.764Z,99.90
2022-08-24T05:45:20.359Z,99.90
2022-08-24T05:47:51.487Z,99.90
2022-08-24T05:50:38.348Z,99.90
2022-08-24T05:53:08.647Z,99.90
2022-08-24T05:55:39.775Z,99.90
2022-08-24T05:58:08.869Z,99.90
2022-08-24T06:00:41.840Z,99.90
2022-08-24T06:03:14.610Z,99.90
2022-08-24T06:05:49.117Z,99.90
2022-08-24T06:08:17.879Z,99.90
2022-08-24T06:10:49.145Z,99.90
2022-08-24T06:13:18.703Z,99.90
2022-08-24T06:16:05.041Z,99.90
2022-08-24T06:18:39.931Z,99.90
2022-08-24T06:21:11.483Z,99.90
2022-08-24T06:23:44.215Z,99.90
2022-08-24T06:26:31.822Z,99.90
2022-08-24T06:29:00.985Z,99.90
2022-08-24T06:31:34.457Z,99.90
2022-08-24T06:34:08.774Z,99.90
2022-08-24T06:36:39.254Z,99.90
2022-08-24T06:39:10.114Z,99.90
2022-08-24T06:41:43.359Z,99.90
2022-08-24T06:44:14.037Z,99.90
2022-08-24T06:47:07.386Z,99.90
2022-08-24T06:49:37.413Z,99.90
2022-08-24T06:52:06.658Z,99.90
2022-08-24T06:54:35.597Z,99.90
2022-08-24T06:57:05.673Z,99.90
2022-08-24T06:59:35.189Z,99.90
2022-08-24T07:02:03.771Z,99.90
2022-08-24T07:04:34.034Z,99.90
2022-08-24T07:07:21.117Z,99.90
2022-08-24T07:09:49.706Z,99.90
2022-08-24T07:12:18.190Z,99.90
2022-08-24T07:14:47.177Z,99.90
2022-08-24T07:17:15.742Z,99.90
2022-08-24T07:19:46.108Z,99.90
2022-08-24T07:22:18.828Z,99.90
2022-08-24T07:24:47.731Z,99.90
2022-08-24T07:27:16.284Z,99.90
2022-08-24T07:29:52.811Z,99.90
2022-08-24T07:32:25.372Z,99.90
2022-08-24T07:34:58.039Z,99.90
2022-08-24T07:37:40.232Z,99.90
2022-08-24T07:40:13.517Z,99.90
2022-08-24T07:42:42.477Z,99.90
2022-08-24T07:45:11.753Z,99.90
2022-08-24T07:47:52.134Z,99.90
2022-08-24T07:50:45.457Z,99.90
2022-08-24T07:53:20.670Z,99.90
2022-08-24T07:55:56.232Z,99.90
2022-08-24T07:58:26.253Z,99.90
2022-08-24T08:00:54.798Z,99.90
2022-08-24T08:03:25.065Z,99.90
2022-08-24T08:05:59.306Z,99.90
2022-08-24T08:08:28.254Z,99.90
2022-08-24T08:10:58.716Z,99.90
2022-08-24T08:13:27.434Z,99.90
2022-08-24T08:15:59.823Z,99.90
2022-08-24T08:18:29.887Z,99.90
2022-08-24T08:21:03.631Z,99.90
2022-08-24T08:23:50.124Z,99.90
2022-08-24T08:26:26.626Z,99.90
2022-08-24T08:29:19.574Z,99.90
2022-08-24T08:31:48.953Z,99.90
2022-08-24T08:34:18.049Z,99.90
2022-08-24T08:36:49.741Z,99.90
2022-08-24T08:39:22.208Z,99.90
2022-08-24T08:42:29.430Z,99.90
2022-08-24T08:45:05.936Z,99.90
2022-08-24T08:50:52.135Z,99.90
2022-08-24T08:53:51.138Z,99.90
2022-08-24T08:56:29.835Z,99.90
2022-08-24T08:59:06.830Z,99.90
2022-08-24T09:01:58.628Z,99.90
2022-08-24T09:05:01.474Z,99.90
2022-08-24T09:07:43.619Z,99.90
2022-08-24T09:10:39.263Z,99.90
2022-08-24T09:13:32.053Z,99.90
2022-08-24T09:16:37.602Z,99.90
2022-08-24T09:19:31.949Z,99.90
2022-08-24T09:22:12.141Z,99.90
2022-08-24T09:25:19.054Z,99.90
2022-08-24T09:28:16.151Z,99.90
2022-08-24T09:31:08.747Z,99.90
2022-08-24T09:33:44.415Z,99.90
2022-08-24T09:36:18.897Z,99.90
2022-08-24T09:39:08.157Z,99.90
2022-08-24T09:42:26.815Z,99.90
2022-08-24T09:45:21.724Z,99.90
2022-08-24T09:48:15.650Z,99.90
2022-08-24T09:51:01.650Z,99.90
2022-08-24T09:54:00.351Z,99.90
2022-08-24T09:57:09.414Z,99.90
2022-08-24T09:59:59.590Z,99.90
2022-08-24T10:02:47.049Z,99.90
2022-08-24T10:05:28.222Z,99.90
2022-08-24T10:08:10.115Z,99.90
2022-08-24T10:10:47.947Z,99.70
2022-08-24T10:13:27.665Z,99.50
2022-08-24T10:16:14.414Z,99.50
2022-08-24T10:18:57.658Z,99.30
2022-08-24T10:21:41.495Z,99.30
2022-08-24T10:25:04.344Z,99.40
2022-08-24T10:27:56.466Z,99.20
2022-08-24T10:30:53.849Z,98.70
2022-08-24T10:33:24.348Z,98.00
2022-08-24T10:36:21.197Z,97.80
2022-08-24T10:39:09.513Z,98.40
2022-08-24T10:42:10.538Z,98.10
2022-08-24T10:44:49.780Z,97.80
2022-08-24T10:47:24.514Z,98.10
2022-08-24T10:50:22.055Z,97.40
2022-08-24T10:53:19.954Z,96.50
2022-08-24T10:55:52.944Z,97.20
2022-08-24T10:58:54.442Z,96.70
2022-08-24T11:01:30.306Z,96.70
2022-08-24T11:04:02.818Z,97.10
2022-08-24T11:06:34.405Z,96.80
2022-08-24T11:09:09.878Z,96.30
2022-08-24T11:11:40.543Z,96.10
2022-08-24T11:14:23.373Z,95.30
2022-08-24T11:16:57.529Z,95.00
2022-08-24T11:19:35.097Z,95.10
2022-08-24T11:22:06.397Z,94.80
2022-08-24T11:24:47.008Z,95.00
2022-08-24T11:27:27.650Z,95.30
2022-08-24T11:29:59.761Z,95.10
2022-08-24T11:32:39.158Z,94.90
2022-08-24T11:35:16.061Z,94.50
2022-08-24T11:37:45.118Z,94.40
2022-08-24T11:40:17.220Z,94.60
2022-08-24T11:43:06.153Z,94.90
2022-08-24T11:45:42.703Z,94.60
2022-08-24T11:48:29.605Z,94.30
2022-08-24T11:51:03.914Z,94.60
2022-08-24T11:56:25.750Z,94.80
2022-08-24T11:59:00.866Z,94.80
2022-08-24T12:01:36.121Z,94.00
2022-08-24T12:04:39.773Z,93.80
2022-08-24T12:07:20.188Z,93.80
2022-08-24T12:10:09.721Z,94.10
2022-08-24T12:12:47.340Z,93.90
2022-08-24T12:15:25.247Z,93.90
2022-08-24T12:18:01.522Z,93.70
2022-08-24T12:20:36.481Z,93.60
2022-08-24T12:23:08.764Z,93.50
2022-08-24T12:25:55.724Z,93.80
2022-08-24T12:28:32.157Z,93.40
2022-08-24T12:31:09.208Z,93.10
2022-08-24T12:33:39.451Z,92.90
2022-08-24T12:36:18.553Z,92.40
2022-08-24T12:38:53.382Z,91.80
2022-08-24T12:41:28.264Z,92.00
2022-08-24T12:44:03.590Z,92.20
2022-08-24T12:46:32.486Z,92.30
2022-08-24T12:49:06.509Z,92.40
2022-08-24T12:51:51.683Z,92.80
2022-08-24T12:54:53.364Z,92.80
2022-08-24T12:57:34.668Z,92.40
2022-08-24T13:00:11.003Z,92.40
2022-08-24T13:02:47.624Z,92.70
2022-08-24T13:05:19.965Z,92.80
2022-08-24T13:07:50.894Z,92.50
2022-08-24T13:10:37.863Z,92.10
2022-08-24T13:13:13.308Z,92.00
2022-08-24T13:15:59.504Z,92.30
2022-08-24T13:18:57.784Z,91.70
2022-08-24T13:21:52.250Z,91.50
2022-08-24T13:25:00.338Z,91.60
2022-08-24T13:28:13.333Z,91.80
2022-08-24T13:31:16.950Z,91.70
2022-08-24T13:33:48.091Z,90.60
2022-08-24T13:37:04.817Z,89.90
2022-08-24T13:40:11.168Z,90.20
2022-08-24T13:43:08.257Z,89.10
2022-08-24T13:45:40.315Z,89.10
2022-08-24T13:48:35.073Z,88.90
2022-08-24T13:51:35.003Z,89.00
2022-08-24T13:54:26.117Z,90.00
2022-08-24T13:57:18.917Z,88.40
2022-08-24T14:00:16.641Z,87.00
2022-08-24T14:03:00.137Z,89.50
2022-08-24T14:05:37.126Z,89.30
2022-08-24T14:08:19.718Z,89.90
2022-08-24T14:11:00.854Z,89.30
2022-08-24T14:13:38.646Z,89.00
2022-08-24T14:16:30.839Z,89.50
2022-08-24T14:19:11.681Z,89.90
2022-08-24T14:21:47.489Z,90.20
2022-08-24T14:24:28.331Z,90.70
2022-08-24T14:27:09.712Z,91.90
2022-08-24T14:29:47.826Z,94.00
2022-08-24T14:32:38.943Z,95.50
2022-08-24T14:35:36.619Z,98.00
2022-08-24T14:38:33.624Z,99.60
2022-08-24T14:41:27.939Z,99.60
2022-08-24T14:44:16.519Z,99.60
2022-08-24T14:46:55.418Z,99.90
2022-08-24T14:49:35.002Z,99.90
2022-08-24T14:52:19.307Z,99.90
2022-08-24T14:55:04.718Z,99.90
2022-08-24T14:58:00.883Z,99.90
2022-08-24T15:00:50.666Z,99.90
2022-08-24T15:03:50.115Z,99.90
2022-08-24T15:06:27.771Z,99.90
2022-08-24T15:09:10.178Z,99.90
2022-08-24T15:11:42.652Z,99.90
2022-08-24T15:14:24.291Z,99.90
2022-08-24T15:17:08.856Z,99.90
2022-08-24T15:19:49.160Z,99.90
2022-08-24T15:22:27.599Z,99.90
2022-08-24T15:25:06.085Z,99.90
2022-08-24T15:27:43.527Z,99.90
2022-08-24T15:30:21.938Z,99.90
2022-08-24T15:32:53.598Z,99.90
2022-08-24T15:35:29.528Z,99.90
2022-08-24T15:37:59.149Z,99.90
2022-08-24T15:40:30.640Z,99.90
2022-08-24T15:43:03.887Z,99.90
2022-08-24T15:45:33.655Z,99.90
2022-08-24T15:48:05.431Z,99.90
2022-08-24T15:50:40.616Z,99.90
2022-08-24T15:53:25.840Z,99.90
2022-08-24T15:55:54.941Z,99.90
2022-08-24T15:58:35.437Z,99.90
2022-08-24T16:01:40.291Z,99.90
2022-08-24T16:04:11.329Z,99.90
2022-08-24T16:06:43.473Z,99.90
2022-08-24T16:09:32.326Z,99.90
2022-08-24T16:12:04.887Z,99.90
2022-08-24T16:14:37.682Z,99.90
2022-08-24T16:17:27.579Z,99.90
2022-08-24T16:19:59.599Z,99.90
2022-08-24T16:22:33.097Z,99.90
2022-08-24T16:25:19.229Z,99.90
2022-08-24T16:27:58.370Z,99.90
2022-08-24T16:30:49.251Z,99.90
2022-08-24T16:33:43.174Z,99.90
2022-08-24T16:36:15.884Z,99.90
2022-08-24T16:38:49.053Z,99.90
2022-08-24T16:41:19.999Z,99.90
2022-08-24T16:43:49.303Z,99.90
2022-08-24T16:46:23.970Z,99.90
2022-08-24T16:48:54.252Z,99.90
2022-08-24T16:51:24.773Z,99.90
2022-08-24T16:53:53.812Z,99.90
2022-08-24T16:56:22.802Z,99.90
2022-08-24T16:58:51.637Z,99.90
2022-08-24T17:01:21.585Z,99.90
2022-08-24T17:03:50.283Z,99.90
2022-08-24T17:06:19.678Z,99.90
2022-08-24T17:08:49.624Z,99.90
2022-08-24T17:11:19.842Z,99.90
2022-08-24T17:13:50.505Z,99.90
2022-08-24T17:16:22.201Z,99.90
2022-08-24T17:18:51.264Z,99.90
2022-08-24T17:21:20.386Z,99.90
2022-08-24T17:23:49.021Z,99.90
2022-08-24T17:26:20.925Z,99.90
2022-08-24T17:28:54.583Z,99.90
2022-08-24T17:31:25.414Z,99.90
2022-08-24T17:33:54.592Z,99.90
2022-08-24T17:36:24.548Z,99.90
2022-08-24T17:38:56.130Z,99.90
2022-08-24T17:41:25.996Z,99.90
2022-08-24T17:43:55.277Z,99.90
2022-08-24T17:46:25.510Z,99.90
2022-08-24T17:48:53.971Z,99.90
2022-08-24T17:51:22.666Z,99.90
2022-08-24T17:53:51.193Z,99.90
2022-08-24T17:56:20.236Z,99.90
2022-08-24T17:59:06.222Z,99.90
2022-08-24T18:01:36.220Z,99.90
2022-08-24T18:04:05.226Z,99.90
2022-08-24T18:06:34.133Z,99.90
2022-08-24T18:09:06.794Z,99.90
2022-08-24T18:11:35.897Z,99.90
2022-08-24T18:14:04.393Z,99.90
2022-08-24T18:16:33.126Z,99.90
2022-08-24T18:19:03.379Z,99.90
2022-08-24T18:21:32.223Z,99.90
2022-08-24T18:24:01.538Z,99.90
2022-08-24T18:26:31.667Z,99.90
2022-08-24T18:29:09.102Z,99.90
2022-08-24T18:31:37.896Z,99.90
2022-08-24T18:34:08.307Z,99.90
2022-08-24T18:36:36.788Z,99.90
2022-08-24T18:39:07.266Z,99.90
2022-08-24T18:42:02.357Z,99.90
2022-08-24T18:44:31.847Z,99.90
2022-08-24T18:47:00.520Z,99.90
2022-08-24T18:49:30.637Z,99.90
2022-08-24T18:51:59.698Z,99.90
2022-08-24T18:54:36.939Z,99.90
2022-08-24T18:57:07.078Z,99.90
2022-08-24T18:59:36.013Z,99.90
2022-08-24T19:02:30.700Z,99.90
2022-08-24T19:05:04.404Z,99.90
2022-08-24T19:07:37.000Z,99.90
2022-08-24T19:10:08.614Z,99.90
2022-08-24T19:12:46.656Z,99.90
2022-08-24T19:15:32.007Z,99.90
2022-08-24T19:18:06.791Z,99.90
2022-08-24T19:20:36.960Z,99.90
2022-08-24T19:23:09.150Z,99.90
2022-08-24T19:25:38.661Z,99.90
2022-08-24T19:28:07.845Z,99.90
2022-08-24T19:30:37.557Z,99.90
2022-08-24T19:33:11.744Z,99.90
2022-08-24T19:35:44.816Z,99.90
2022-08-24T19:38:13.270Z,99.90
2022-08-24T19:40:47.672Z,99.90
2022-08-24T19:43:17.124Z,99.90
2022-08-24T19:46:06.390Z,99.90
2022-08-24T19:48:36.755Z,99.90
2022-08-24T19:51:10.190Z,99.90
2022-08-24T19:53:40.094Z,99.90
2022-08-24T19:56:09.203Z,99.90
2022-08-24T19:58:44.831Z,99.90
2022-08-24T20:01:15.760Z,99.90
2022-08-24T20:03:44.352Z,99.90
2022-08-24T20:06:14.840Z,99.90
2022-08-24T20:08:43.505Z,99.90
2022-08-24T20:11:18.038Z,99.90
2022-08-24T20:13:47.434Z,99.90
2022-08-24T20:16:20.077Z,99.90
2022-08-24T20:18:49.037Z,99.90
2022-08-24T20:21:19.195Z,99.90
2022-08-24T20:23:47.675Z,99.90
2022-08-24T20:26:16.379Z,99.90
2022-08-24T20:28:49.385Z,99.90
2022-08-24T20:31:19.635Z,99.90
2022-08-24T20:33:57.308Z,99.90
2022-08-24T20:36:29.716Z,99.90
2022-08-24T20:38:59.902Z,99.90
2022-08-24T20:41:28.961Z,99.90
2022-08-24T20:43:57.896Z,99.90
2022-08-24T20:46:27.411Z,99.90
2022-08-24T20:48:57.294Z,99.90
2022-08-24T20:51:27.204Z,99.90
2022-08-24T20:53:56.275Z,99.90
2022-08-24T20:56:31.158Z,99.90
2022-08-24T20:59:03.377Z,99.90
2022-08-24T21:01:32.590Z,99.90
2022-08-24T21:04:05.069Z,99.90
2022-08-24T21:06:36.374Z,99.90
2022-08-24T21:09:06.624Z,99.90
2022-08-24T21:11:40.449Z,99.90
2022-08-24T21:14:09.204Z,99.90
2022-08-24T21:16:40.579Z,99.90
2022-08-24T21:19:10.946Z,99.90
2022-08-24T21:21:42.565Z,99.90
2022-08-24T21:24:11.488Z,99.90
2022-08-24T21:26:40.157Z,99.90
2022-08-24T21:29:10.022Z,99.90
2022-08-24T21:31:39.586Z,99.90
2022-08-24T21:34:26.667Z,99.90
2022-08-24T21:36:57.961Z,99.90
2022-08-24T21:39:26.469Z,99.90
2022-08-24T21:41:54.923Z,99.90
2022-08-24T21:44:23.360Z,99.90
2022-08-24T21:46:52.154Z,99.90
2022-08-24T21:49:21.281Z,99.90
2022-08-24T21:51:50.154Z,99.90
2022-08-24T21:54:20.082Z,99.90
2022-08-24T21:56:49.442Z,99.90
2022-08-24T21:59:17.907Z,99.90
2022-08-24T22:01:46.569Z,99.90
2022-08-24T22:04:15.878Z,99.90
2022-08-24T22:06:44.369Z,99.90
2022-08-24T22:09:12.863Z,99.90
2022-08-24T22:11:43.382Z,99.90
2022-08-24T22:14:12.018Z,99.90
2022-08-24T22:16:40.440Z,99.90
2022-08-24T22:19:08.960Z,99.90
2022-08-24T22:21:40.627Z,99.90
2022-08-24T22:24:11.164Z,99.90
2022-08-24T22:26:40.399Z,99.90
2022-08-24T22:29:11.725Z,99.90
2022-08-24T22:31:42.783Z,99.90
2022-08-24T22:34:16.565Z,99.90
2022-08-24T22:36:50.126Z,99.90
2022-08-24T22:39:18.636Z,99.90
2022-08-24T22:41:47.155Z,99.90
2022-08-24T22:44:24.147Z,99.90
2022-08-24T22:46:54.739Z,99.90
2022-08-24T22:49:26.088Z,99.90
2022-08-24T22:51:54.926Z,99.90
2022-08-24T22:54:25.544Z,99.90
2022-08-24T22:56:56.083Z,99.90
2022-08-24T22:59:27.917Z,99.90
2022-08-24T23:01:58.249Z,99.90
2022-08-24T23:04:30.248Z,99.90
2022-08-24T23:06:58.972Z,99.90
2022-08-24T23:09:27.752Z,99.90
2022-08-24T23:12:00.563Z,99.90
2022-08-24T23:14:31.532Z,99.90
2022-08-24T23:17:02.278Z,99.90
2022-08-24T23:19:48.516Z,99.90
2022-08-24T23:22:19.800Z,99.90
2022-08-24T23:24:49.360Z,99.90
2022-08-24T23:27:19.225Z,99.90
2022-08-24T23:29:49.777Z,99.90
2022-08-24T23:32:19.390Z,99.90
2022-08-24T23:34:48.596Z,99.90
2022-08-24T23:37:18.692Z,99.90
2022-08-24T23:39:47.236Z,99.90
2022-08-24T23:42:16.141Z,99.90
2022-08-24T23:44:44.726Z,99.90
2022-08-24T23:47:14.628Z,99.90
2022-08-24T23:59:08.248Z,99.90
